Time;durP1;ratioP1;P1;durP2;ratioP2;P2;SDS_P1;SDS_P2;PMS_P1;PMS_P2;Temp;Humidity;BMP_temperature;BMP_pressure;BME280_temperature;BME280_humidity;BME280_pressure;Samples;Min_cycle;Max_cycle;Signal;HPM_P1;HPM_P2
2022/11/06 00:00:39;;;;;;;;;;;;;;;20.85;59.13;100628.84;7255084;19;154912;-56
2022/11/06 00:03:06;;;;;;;;;;;;;;;20.86;58.88;100616.47;7261182;19;153841;-56
2022/11/06 00:08:10;;;;;;;;;;;;;;;20.86;59.16;100617.31;7257852;19;153494;-56
2022/11/06 00:10:38;;;;;;;;;;;;;;;20.86;58.94;100613.66;7256296;19;155406;-56
2022/11/06 00:13:05;;;;;;;;;;;;;;;20.85;58.69;100610.03;7253996;19;154374;-57
2022/11/06 00:15:32;;;;;;;;;;;;;;;20.86;59.15;100610.84;7258858;19;154012;-56
2022/11/06 00:17:59;;;;;;;;;;;;;;;20.87;58.61;100609.72;7257697;19;154987;-57
2022/11/06 00:20:26;;;;;;;;;;;;;;;20.88;58.93;100621.78;7261877;19;154034;-54
2022/11/06 00:22:53;;;;;;;;;;;;;;;20.89;58.92;100609.41;7255584;19;154795;-56
2022/11/06 00:25:19;;;;;;;;;;;;;;;20.90;58.55;100611.03;7254481;19;153165;-57
2022/11/06 00:27:46;;;;;;;;;;;;;;;20.91;58.38;100615.50;7253909;19;154497;-57
2022/11/06 00:30:13;;;;;;;;;;;;;;;20.93;58.53;100608.44;7256178;19;153927;-57
2022/11/06 00:32:40;;;;;;;;;;;;;;;20.95;58.66;100605.31;7258933;19;154701;-57
2022/11/06 00:35:07;;;;;;;;;;;;;;;20.95;58.55;100596.88;7257093;19;154583;-57
2022/11/06 00:37:34;;;;;;;;;;;;;;;20.97;58.49;100603.00;7256075;19;153895;-57
2022/11/06 00:40:01;;;;;;;;;;;;;;;20.98;58.07;100594.28;7259553;19;153630;-57
2022/11/06 00:42:28;;;;;;;;;;;;;;;20.99;57.99;100598.72;7263393;19;154307;-57
2022/11/06 00:44:56;;;;;;;;;;;;;;;20.99;58.33;100586.66;7255230;19;153980;-57
2022/11/06 00:47:22;;;;;;;;;;;;;;;20.98;58.23;100585.84;7257049;19;153414;-57
2022/11/06 00:49:49;;;;;;;;;;;;;;;20.98;58.42;100583.03;7256221;19;153419;-57
2022/11/06 00:52:16;;;;;;;;;;;;;;;20.99;58.36;100583.84;7252606;19;154020;-57
2022/11/06 00:54:43;;;;;;;;;;;;;;;20.98;57.91;100569.00;7253420;19;152678;-57
2022/11/06 00:57:10;;;;;;;;;;;;;;;20.99;58.05;100564.19;7255005;19;154088;-57
2022/11/06 00:59:36;;;;;;;;;;;;;;;20.99;57.87;100564.19;7248012;19;154985;-53
2022/11/06 01:02:03;;;;;;;;;;;;;;;20.95;58.00;100560.38;7262272;19;154006;-57
2022/11/06 01:04:33;;;;;;;;;;;;;;;20.95;58.53;100551.94;7257025;19;156200;-57
2022/11/06 01:07:00;;;;;;;;;;;;;;;20.93;58.57;100552.28;7259368;19;153576;-55
2022/11/06 01:09:27;;;;;;;;;;;;;;;20.93;59.17;100555.09;7259383;19;153419;-57
2022/11/06 01:11:56;;;;;;;;;;;;;;;20.91;59.74;100548.13;7256485;19;154206;-57
2022/11/06 01:14:40;;;;;;;;;;;;;;;20.89;59.82;100548.47;7256013;19;154079;-56
2022/11/06 01:17:07;;;;;;;;;;;;;;;20.89;59.50;100533.59;7259698;19;155171;-56
2022/11/06 01:19:34;;;;;;;;;;;;;;;20.89;59.83;100540.03;7253696;19;155044;-57
2022/11/06 01:22:01;;;;;;;;;;;;;;;20.89;59.58;100523.19;7254442;19;152010;-57
2022/11/06 01:24:28;;;;;;;;;;;;;;;20.90;59.53;100519.19;7263319;19;154989;-56
2022/11/06 01:26:56;;;;;;;;;;;;;;;20.90;60.17;100530.44;7252279;19;155152;-57
2022/11/06 01:29:43;;;;;;;;;;;;;;;20.91;59.60;100526.47;7253220;19;154900;-56
2022/11/06 01:32:10;;;;;;;;;;;;;;;20.90;59.92;100524.81;7254555;19;154025;-56
2022/11/06 01:34:38;;;;;;;;;;;;;;;20.90;59.92;100524.81;7255479;19;153398;-56
2022/11/06 01:37:04;;;;;;;;;;;;;;;20.90;60.50;100526.78;7255457;19;154250;-56
2022/11/06 01:39:37;;;;;;;;;;;;;;;20.90;60.13;100518.38;7252554;19;153186;-56
2022/11/06 01:42:03;;;;;;;;;;;;;;;20.92;60.00;100525.34;7254549;19;153232;-56
2022/11/06 01:44:30;;;;;;;;;;;;;;;20.92;60.13;100510.47;7254040;19;154194;-56
2022/11/06 01:46:58;;;;;;;;;;;;;;;20.93;59.73;100504.53;7262580;19;153485;-56
2022/11/06 01:49:27;;;;;;;;;;;;;;;20.92;60.28;100504.84;7257262;19;153436;-56
2022/11/06 01:51:57;;;;;;;;;;;;;;;20.93;59.67;100490.50;7251889;19;155627;-56
2022/11/06 01:54:26;;;;;;;;;;;;;;;20.94;60.18;100483.69;7253438;19;153576;-56
2022/11/06 01:56:55;;;;;;;;;;;;;;;20.94;60.09;100491.31;7256247;19;154036;-56
2022/11/06 01:59:27;;;;;;;;;;;;;;;20.92;60.67;100490.81;7250186;19;153209;-56
2022/11/06 02:01:54;;;;;;;;;;;;;;;20.91;60.61;100481.56;7253566;19;153521;-56
2022/11/06 02:04:24;;;;;;;;;;;;;;;20.91;60.76;100477.91;7253907;19;153419;-56
2022/11/06 02:06:51;;;;;;;;;;;;;;;20.90;60.68;100468.66;7254843;19;155301;-56
2022/11/06 02:09:21;;;;;;;;;;;;;;;20.91;60.66;100467.50;7262680;19;152470;-55
2022/11/06 02:11:58;;;;;;;;;;;;;;;20.91;60.50;100461.91;7252516;19;154361;-56
2022/11/06 02:14:35;;;;;;;;;;;;;;;20.92;60.36;100451.50;7250689;19;154028;-56
2022/11/06 02:17:08;;;;;;;;;;;;;;;20.94;60.51;100449.19;7255275;19;152709;-56
2022/11/06 02:19:49;;;;;;;;;;;;;;;20.93;60.72;100439.94;7250802;19;153319;-54
2022/11/06 02:22:27;;;;;;;;;;;;;;;20.94;60.36;100432.34;7253342;19;152154;-56
2022/11/06 02:25:04;;;;;;;;;;;;;;;20.91;60.63;100435.78;7253012;19;154180;-55
2022/11/06 02:27:33;;;;;;;;;;;;;;;20.92;60.51;100435.47;7253266;19;156337;-55
2022/11/06 02:30:02;;;;;;;;;;;;;;;20.90;60.96;100431.31;7252515;19;154604;-55
2022/11/06 02:32:33;;;;;;;;;;;;;;;20.90;61.22;100428.50;7260477;19;152853;-55
2022/11/06 02:35:02;;;;;;;;;;;;;;;20.89;60.67;100429.69;7251863;19;154202;-55
2022/11/06 02:37:32;;;;;;;;;;;;;;;20.90;60.25;100418.09;7254443;19;152418;-55
2022/11/06 02:40:01;;;;;;;;;;;;;;;20.90;60.64;100429.34;7251626;19;154038;-54
2022/11/06 02:42:30;;;;;;;;;;;;;;;20.91;60.17;100421.75;7253179;19;152494;-55
2022/11/06 02:44:58;;;;;;;;;;;;;;;20.91;60.53;100425.38;7250706;19;152379;-55
2022/11/06 02:47:27;;;;;;;;;;;;;;;20.91;60.43;100421.75;7251061;19;156677;-55
2022/11/06 02:50:00;;;;;;;;;;;;;;;20.92;60.82;100421.44;7253433;19;154343;-55
2022/11/06 02:52:33;;;;;;;;;;;;;;;20.90;60.21;100415.28;7254892;19;152885;-55
2022/11/06 02:55:04;;;;;;;;;;;;;;;20.91;60.58;100418.94;7258189;19;153583;-55
2022/11/06 02:57:34;;;;;;;;;;;;;;;20.91;60.51;100413.31;7251742;19;153476;-55
2022/11/06 03:00:04;;;;;;;;;;;;;;;20.89;60.68;100413.66;7248631;19;154515;-55
2022/11/06 03:02:35;;;;;;;;;;;;;;;20.90;60.89;100404.06;7255606;19;153203;-55
2022/11/06 03:05:06;;;;;;;;;;;;;;;20.90;60.61;100394.81;7254368;19;153860;-55
2022/11/06 03:07:37;;;;;;;;;;;;;;;20.89;61.08;100401.59;7253786;19;153841;-55
2022/11/06 03:10:05;;;;;;;;;;;;;;;20.89;61.02;100395.97;7252521;19;153627;-55
2022/11/06 03:12:41;;;;;;;;;;;;;;;20.86;61.31;100398.28;7258914;19;153272;-55
2022/11/06 03:15:09;;;;;;;;;;;;;;;20.86;61.16;100387.03;7265446;19;153612;-55
2022/11/06 03:17:42;;;;;;;;;;;;;;;20.85;61.22;100381.75;7260346;19;154317;-55
2022/11/06 03:20:22;;;;;;;;;;;;;;;20.84;61.67;100380.94;7256526;19;153986;-54
2022/11/06 03:22:56;;;;;;;;;;;;;;;20.84;61.81;100378.13;7260327;19;153771;-55
2022/11/06 03:25:27;;;;;;;;;;;;;;;20.84;61.52;100389.38;7258965;19;154959;-55
2022/11/06 03:27:54;;;;;;;;;;;;;;;20.84;61.98;100369.72;7257880;19;153742;-55
2022/11/06 03:30:21;;;;;;;;;;;;;;;20.82;62.21;100368.38;7259135;19;153693;-56
2022/11/06 03:32:59;;;;;;;;;;;;;;;20.83;62.13;100367.22;7257444;19;154053;-56
2022/11/06 03:35:30;;;;;;;;;;;;;;;20.80;62.02;100360.25;7255439;19;153770;-56
2022/11/06 03:38:00;;;;;;;;;;;;;;;20.81;61.71;100361.09;7266087;19;154146;-56
2022/11/06 03:40:29;;;;;;;;;;;;;;;20.82;61.93;100354.31;7255947;19;152977;-55
2022/11/06 03:42:56;;;;;;;;;;;;;;;20.81;61.61;100345.06;7258852;19;152975;-55
2022/11/06 03:45:25;;;;;;;;;;;;;;;20.81;61.80;100341.44;7258186;19;154576;-55
2022/11/06 03:47:55;;;;;;;;;;;;;;;20.81;62.22;100349.84;7259696;19;155963;-55
2022/11/06 03:50:25;;;;;;;;;;;;;;;20.81;62.13;100339.44;7250727;19;154524;-56
2022/11/06 03:52:56;;;;;;;;;;;;;;;20.80;61.80;100334.97;7257937;19;154837;-55
2022/11/06 03:55:27;;;;;;;;;;;;;;;20.79;62.25;100336.16;7259109;19;153816;-55
2022/11/06 03:57:56;;;;;;;;;;;;;;;20.78;62.04;100330.84;7258331;19;154444;-55
2022/11/06 04:00:23;;;;;;;;;;;;;;;20.77;62.26;100324.41;7262338;19;154165;-56
2022/11/06 04:03:03;;;;;;;;;;;;;;;20.77;62.09;100316.00;7256380;19;153325;-55
2022/11/06 04:05:34;;;;;;;;;;;;;;;20.76;62.60;100322.75;7259302;19;153235;-55
2022/11/06 04:15:57;;;;;;;;;;;;;;;20.72;62.41;100320.91;7255880;19;153667;-55
2022/11/06 04:18:24;;;;;;;;;;;;;;;20.73;62.70;100322.56;7259676;19;152416;-55
2022/11/06 04:26:34;;;;;;;;;;;;;;;20.72;62.69;100309.69;7262268;19;153328;-55
2022/11/06 04:26:42;;;;;;;;;;;;;;;20.70;62.64;100304.41;7252382;19;155097;-55
2022/11/06 04:29:17;;;;;;;;;;;;;;;20.69;62.97;100308.38;7255549;19;153980;-55
2022/11/06 04:31:55;;;;;;;;;;;;;;;20.68;62.82;100297.47;7257883;19;153067;-55
2022/11/06 04:34:31;;;;;;;;;;;;;;;20.66;63.06;100300.63;7255930;19;154061;-55
2022/11/06 04:36:58;;;;;;;;;;;;;;;20.66;62.97;100292.19;7256393;19;155105;-57
2022/11/06 04:39:25;;;;;;;;;;;;;;;20.64;63.45;100305.72;7255203;19;152105;-57
2022/11/06 04:42:01;;;;;;;;;;;;;;;20.65;63.04;100295.31;7257752;19;153852;-57
2022/11/06 04:44:34;;;;;;;;;;;;;;;20.63;63.78;100303.22;7254350;19;152728;-57
2022/11/06 04:47:03;;;;;;;;;;;;;;;20.62;63.13;100302.41;7263639;19;154170;-57
2022/11/06 04:49:31;;;;;;;;;;;;;;;20.62;63.22;100296.81;7257795;19;153282;-56
2022/11/06 04:52:01;;;;;;;;;;;;;;;20.60;63.70;100312.31;7255727;19;152600;-56
2022/11/06 04:54:28;;;;;;;;;;;;;;;20.60;63.56;100301.06;7256530;19;154024;-56
2022/11/06 04:56:59;;;;;;;;;;;;;;;20.59;63.64;100316.25;7253197;19;154830;-56
2022/11/06 04:59:27;;;;;;;;;;;;;;;20.58;63.77;100309.00;7255217;19;153994;-56
2022/11/06 05:01:55;;;;;;;;;;;;;;;20.58;63.88;100312.59;7255161;19;154641;-57
2022/11/06 05:04:22;;;;;;;;;;;;;;;20.57;63.66;100310.97;7254806;19;154513;-57
2022/11/06 05:06:49;;;;;;;;;;;;;;;20.57;63.92;100312.97;7264624;19;153321;-56
2022/11/06 05:09:16;;;;;;;;;;;;;;;20.55;64.06;100302.03;7255463;19;154561;-57
2022/11/06 05:11:43;;;;;;;;;;;;;;;20.54;64.23;100306.00;7257082;19;153160;-57
2022/11/06 05:14:10;;;;;;;;;;;;;;;20.53;64.35;100309.97;7254613;19;154510;-57
2022/11/06 05:16:37;;;;;;;;;;;;;;;20.54;63.90;100314.41;7256830;19;153168;-56
2022/11/06 05:19:04;;;;;;;;;;;;;;;20.52;64.29;100297.09;7255303;19;152845;-56
2022/11/06 05:24:09;;;;;;;;;;;;;;;20.53;64.21;100306.34;7252686;19;154320;-57
2022/11/06 05:26:36;;;;;;;;;;;;;;;20.53;63.83;100309.97;7254188;19;154598;-58
2022/11/06 05:29:03;;;;;;;;;;;;;;;20.52;64.38;100290.66;7262095;19;153593;-57
2022/11/06 05:31:31;;;;;;;;;;;;;;;20.50;64.40;100296.56;7255297;19;153844;-57
2022/11/06 05:33:59;;;;;;;;;;;;;;;20.49;64.29;100299.72;7255340;19;154645;-57
2022/11/06 05:36:26;;;;;;;;;;;;;;;20.47;64.60;100297.22;7254138;19;154118;-56
2022/11/06 05:38:56;;;;;;;;;;;;;;;20.47;64.58;100290.78;7254347;19;152736;-57
2022/11/06 05:41:24;;;;;;;;;;;;;;;20.47;64.55;100302.00;7252171;19;155448;-57
2022/11/06 05:43:52;;;;;;;;;;;;;;;20.47;64.37;100283.19;7253845;19;153308;-57
2022/11/06 05:46:20;;;;;;;;;;;;;;;20.45;64.46;100274.25;7253582;19;153238;-57
2022/11/06 05:49:08;;;;;;;;;;;;;;;20.45;64.18;100270.63;7257283;19;156325;-57
2022/11/06 05:51:36;;;;;;;;;;;;;;;20.44;64.53;100263.38;7260556;19;152954;-57
2022/11/06 05:54:04;;;;;;;;;;;;;;;20.42;64.80;100249.66;7256499;19;152771;-57
2022/11/06 05:56:33;;;;;;;;;;;;;;;20.42;64.51;100247.69;7253303;19;152768;-57
2022/11/06 05:59:00;;;;;;;;;;;;;;;20.41;64.66;100248.00;7254124;19;152569;-56
2022/11/06 06:01:27;;;;;;;;;;;;;;;20.40;64.35;100235.13;7250320;19;155051;-57
2022/11/06 06:03:55;;;;;;;;;;;;;;;20.39;64.82;100256.78;7254184;19;154796;-57
2022/11/06 06:06:21;;;;;;;;;;;;;;;20.39;64.74;100220.28;7255940;19;153979;-57
2022/11/06 06:08:49;;;;;;;;;;;;;;;20.38;64.70;100215.84;7257132;19;152952;-57
2022/11/06 06:11:16;;;;;;;;;;;;;;;20.38;64.48;100195.34;7253090;19;154363;-57
2022/11/06 06:13:43;;;;;;;;;;;;;;;20.38;64.55;100231.84;7260360;19;153834;-57
2022/11/06 06:16:10;;;;;;;;;;;;;;;20.38;64.70;100212.19;7253102;19;153731;-57
2022/11/06 06:18:39;;;;;;;;;;;;;;;20.38;64.87;100226.22;7256366;19;153756;-56
2022/11/06 06:21:07;;;;;;;;;;;;;;;20.36;64.90;100212.50;7248728;19;155187;-56
2022/11/06 06:23:35;;;;;;;;;;;;;;;20.36;64.78;100208.88;7256148;19;154117;-56
2022/11/06 06:26:03;;;;;;;;;;;;;;;20.35;64.45;100205.25;7252469;19;153713;-56
2022/11/06 06:28:31;;;;;;;;;;;;;;;20.35;64.73;100193.22;7254765;19;153368;-55
2022/11/06 06:31:02;;;;;;;;;;;;;;;20.34;64.51;100186.78;7252447;19;153713;-55
2022/11/06 06:33:28;;;;;;;;;;;;;;;20.34;64.81;100188.75;7255704;19;153913;-55
2022/11/06 06:35:56;;;;;;;;;;;;;;;20.33;64.63;100173.06;7259905;19;153367;-55
2022/11/06 06:38:24;;;;;;;;;;;;;;;20.32;65.05;100168.59;7252447;19;154604;-56
2022/11/06 06:40:53;;;;;;;;;;;;;;;20.32;64.94;100171.41;7251055;19;153596;-55
2022/11/06 06:43:21;;;;;;;;;;;;;;;20.31;64.63;100164.13;7251628;19;153940;-56
2022/11/06 06:45:49;;;;;;;;;;;;;;;20.30;64.85;100162.50;7252735;19;152694;-55
2022/11/06 06:48:16;;;;;;;;;;;;;;;20.31;64.65;100164.13;7260881;19;153337;-56
2022/11/06 06:50:43;;;;;;;;;;;;;;;20.31;64.82;100159.34;7259689;19;154682;-56
2022/11/06 06:53:13;;;;;;;;;;;;;;;20.30;65.11;100145.66;7258926;19;153937;-56
2022/11/06 06:55:41;;;;;;;;;;;;;;;20.30;65.23;100145.66;7261470;19;152368;-56
2022/11/06 06:58:10;;;;;;;;;;;;;;;20.28;65.12;100139.50;7266053;19;153320;-56
2022/11/06 07:00:46;;;;;;;;;;;;;;;20.26;64.83;100133.41;7260264;19;154497;-56
2022/11/06 07:03:14;;;;;;;;;;;;;;;20.27;65.32;100126.63;7259583;19;152727;-56
2022/11/06 07:05:45;;;;;;;;;;;;;;;20.25;65.16;100123.34;7259134;19;154122;-56
2022/11/06 07:08:12;;;;;;;;;;;;;;;20.24;65.50;100118.88;7258741;19;154070;-56
2022/11/06 07:10:46;;;;;;;;;;;;;;;20.25;64.81;100118.56;7259579;19;154523;-56
2022/11/06 07:13:14;;;;;;;;;;;;;;;20.25;64.86;100114.94;7260487;19;154149;-56
2022/11/06 07:15:41;;;;;;;;;;;;;;;20.26;64.64;100110.97;7259328;19;154025;-56
2022/11/06 07:18:08;;;;;;;;;;;;;;;20.24;65.69;100113.28;7269231;19;153227;-56
2022/11/06 07:20:38;;;;;;;;;;;;;;;20.26;64.76;100116.59;7257491;19;153512;-57
2022/11/06 07:23:06;;;;;;;;;;;;;;;20.25;66.80;100101.75;7259973;19;153913;-57
2022/11/06 07:25:34;;;;;;;;;;;;;;;20.25;67.96;100117.75;7256948;19;152550;-57
2022/11/06 07:28:02;;;;;;;;;;;;;;;20.25;67.91;100104.53;7255708;19;154831;-57
2022/11/06 07:30:30;;;;;;;;;;;;;;;20.29;68.18;100110.31;7255281;19;153566;-56
2022/11/06 07:32:59;;;;;;;;;;;;;;;20.30;68.51;100097.97;7255529;19;153151;-57
2022/11/06 07:35:27;;;;;;;;;;;;;;;20.35;68.38;100098.63;7258567;19;154557;-57
2022/11/06 07:37:55;;;;;;;;;;;;;;;20.40;68.39;100097.66;7257638;19;153368;-57
2022/11/06 07:40:26;;;;;;;;;;;;;;;20.46;68.16;100092.69;7267695;19;152730;-57
2022/11/06 07:43:01;;;;;;;;;;;;;;;20.50;68.54;100083.31;7257370;19;155431;-57
2022/11/06 07:45:29;;;;;;;;;;;;;;;20.55;68.52;100079.50;7256389;19;153743;-57
2022/11/06 07:48:00;;;;;;;;;;;;;;;20.59;68.31;100081.31;7258852;19;154223;-57
2022/11/06 07:50:28;;;;;;;;;;;;;;;20.63;68.08;100076.69;7256566;19;152636;-57
2022/11/06 07:52:55;;;;;;;;;;;;;;;20.68;67.75;100086.94;7257479;19;153127;-56
2022/11/06 07:55:23;;;;;;;;;;;;;;;20.73;68.35;100075.53;7258785;19;153876;-57
2022/11/06 07:57:51;;;;;;;;;;;;;;;20.77;68.31;100091.38;7255998;19;153627;-57
2022/11/06 08:00:19;;;;;;;;;;;;;;;20.82;68.54;100096.84;7257925;19;153374;-56
2022/11/06 08:02:51;;;;;;;;;;;;;;;20.86;68.03;100092.22;7265192;19;154922;-56
2022/11/06 08:05:20;;;;;;;;;;;;;;;20.92;68.37;100094.84;7258638;19;154233;-55
2022/11/06 08:07:48;;;;;;;;;;;;;;;20.97;68.24;100098.31;7257617;19;154037;-55
2022/11/06 08:10:16;;;;;;;;;;;;;;;21.03;68.18;100098.97;7257053;19;153990;-55
2022/11/06 08:12:43;;;;;;;;;;;;;;;21.06;67.92;100098.31;7259328;19;153037;-56
2022/11/06 08:15:10;;;;;;;;;;;;;;;21.11;67.69;100100.94;7257683;19;154785;-56
2022/11/06 08:17:39;;;;;;;;;;;;;;;21.15;67.89;100113.19;7259768;19;154514;-56
2022/11/06 08:20:08;;;;;;;;;;;;;;;21.19;67.85;100133.84;7257896;19;153639;-56
2022/11/06 08:22:36;;;;;;;;;;;;;;;21.22;67.18;100134.00;7261446;19;153482;-56
2022/11/06 08:25:04;;;;;;;;;;;;;;;21.27;67.21;100144.22;7266056;19;154458;-56
2022/11/06 08:27:31;;;;;;;;;;;;;;;21.30;66.76;100144.38;7256158;19;154322;-56
2022/11/06 08:29:59;;;;;;;;;;;;;;;21.33;66.86;100128.88;7255330;19;155078;-56
2022/11/06 08:32:27;;;;;;;;;;;;;;;21.37;66.53;100123.41;7258669;19;153825;-56
2022/11/06 08:34:55;;;;;;;;;;;;;;;21.40;66.71;100123.53;7257331;19;153169;-56
2022/11/06 08:37:23;;;;;;;;;;;;;;;21.42;66.23;100111.97;7259201;19;154914;-56
2022/11/06 08:39:53;;;;;;;;;;;;;;;21.45;66.40;100109.31;7258098;19;154536;-56
2022/11/06 08:42:21;;;;;;;;;;;;;;;21.48;65.81;100110.66;7255136;19;153929;-56
2022/11/06 08:44:49;;;;;;;;;;;;;;;21.49;65.76;100112.28;7255400;19;153633;-57
2022/11/06 08:47:16;;;;;;;;;;;;;;;21.52;65.97;100120.88;7264492;19;153737;-57
2022/11/06 08:49:44;;;;;;;;;;;;;;;21.53;65.63;100119.69;7256304;19;154224;-57
2022/11/06 08:52:11;;;;;;;;;;;;;;;21.55;65.64;100113.75;7258791;19;153102;-57
2022/11/06 08:54:38;;;;;;;;;;;;;;;21.56;65.73;100095.75;7255621;19;153313;-57
2022/11/06 08:57:06;;;;;;;;;;;;;;;21.58;65.11;100107.44;7258060;19;153523;-57
2022/11/06 08:59:33;;;;;;;;;;;;;;;21.58;65.36;100088.59;7253345;19;152807;-57
2022/11/06 09:02:02;;;;;;;;;;;;;;;21.60;64.98;100085.47;7254369;19;153343;-57
2022/11/06 09:04:31;;;;;;;;;;;;;;;21.60;65.48;100086.28;7254438;19;153881;-57
2022/11/06 09:07:05;;;;;;;;;;;;;;;21.60;65.38;100082.66;7256942;19;153885;-57
2022/11/06 09:09:32;;;;;;;;;;;;;;;21.60;64.99;100072.25;7261331;19;154383;-56
2022/11/06 09:12:01;;;;;;;;;;;;;;;21.61;65.09;100065.47;7259286;19;152431;-56
2022/11/06 09:14:29;;;;;;;;;;;;;;;21.62;64.87;100066.28;7252948;19;153410;-57
2022/11/06 09:16:57;;;;;;;;;;;;;;;21.62;64.93;100074.72;7255151;19;153316;-57
2022/11/06 09:19:26;;;;;;;;;;;;;;;21.62;65.35;100083.94;7255805;19;153402;-57
2022/11/06 09:21:54;;;;;;;;;;;;;;;21.62;65.54;100089.56;7253399;19;155527;-63
2022/11/06 09:24:21;;;;;;;;;;;;;;;21.65;64.83;100083.31;7253490;19;155441;-57
2022/11/06 09:27:09;;;;;;;;;;;;;;;21.65;64.76;100080.50;7255392;19;153904;-57
2022/11/06 09:29:39;;;;;;;;;;;;;;;21.63;63.15;100084.78;7260437;19;154099;-56
2022/11/06 09:32:06;;;;;;;;;;;;;;;21.57;62.42;100066.47;7257754;19;152071;-56
2022/11/06 09:34:34;;;;;;;;;;;;;;;21.56;62.90;100062.84;7256102;19;154863;-56
2022/11/06 09:37:02;;;;;;;;;;;;;;;21.55;62.80;100058.38;7256771;19;154458;-56
2022/11/06 09:39:29;;;;;;;;;;;;;;;21.59;62.90;100058.50;7232967;19;155618;-56
2022/11/06 09:42:00;;;;;;;;;;;;;;;21.52;62.80;100059.06;7241707;19;153791;-57
2022/11/06 09:44:32;;;;;;;;;;;;;;;21.50;63.04;100046.47;7244463;19;155007;-56
2022/11/06 09:47:03;;;;;;;;;;;;;;;21.49;62.96;100045.66;7254371;19;153644;-57
2022/11/06 09:49:40;;;;;;;;;;;;;;;21.48;63.00;100048.81;7253576;19;154080;-57
2022/11/06 09:52:15;;;;;;;;;;;;;;;21.50;63.24;100043.66;7261100;19;154010;-55
2022/11/06 09:54:49;;;;;;;;;;;;;;;21.51;63.02;100048.13;7254780;19;154590;-57
2022/11/06 09:57:32;;;;;;;;;;;;;;;21.50;62.85;100043.66;7253668;19;157648;-57
2022/11/06 10:00:01;;;;;;;;;;;;;;;21.50;62.42;100026.81;7253260;19;153766;-57
2022/11/06 10:02:31;;;;;;;;;;;;;;;21.50;62.38;100033.25;7253058;19;154103;-56
2022/11/06 10:05:04;;;;;;;;;;;;;;;21.50;62.19;100022.00;7255608;19;153629;-56
2022/11/06 10:07:33;;;;;;;;;;;;;;;21.47;61.80;100017.06;7253838;19;153174;-56
2022/11/06 10:10:00;;;;;;;;;;;;;;;21.48;62.13;99999.06;7253103;19;154332;-56
2022/11/06 10:12:33;;;;;;;;;;;;;;;21.48;61.86;99995.41;7250639;19;154596;-56
2022/11/06 10:15:07;;;;;;;;;;;;;;;21.47;61.96;99974.09;7260783;19;152928;-57
2022/11/06 10:17:43;;;;;;;;;;;;;;;21.45;61.82;99994.09;7250817;19;154877;-56
2022/11/06 10:20:16;;;;;;;;;;;;;;;21.44;61.73;99995.25;7251849;19;152747;-56
2022/11/06 10:22:59;;;;;;;;;;;;;;;21.43;61.80;99984.34;7250192;19;153594;-56
2022/11/06 10:25:38;;;;;;;;;;;;;;;21.41;61.59;99990.31;7251723;19;154265;-56
2022/11/06 10:28:21;;;;;;;;;;;;;;;21.39;61.93;99997.44;7253051;19;154279;-56
2022/11/06 10:30:56;;;;;;;;;;;;;;;21.39;61.76;99991.81;7255343;19;153108;-56
2022/11/06 10:33:23;;;;;;;;;;;;;;;21.33;62.07;99993.16;7251044;19;154097;-56
2022/11/06 10:35:54;;;;;;;;;;;;;;;21.37;61.74;99994.97;7251350;19;153517;-56
2022/11/06 10:38:26;;;;;;;;;;;;;;;21.34;61.49;99984.41;7264344;19;153585;-56
2022/11/06 10:40:54;;;;;;;;;;;;;;;21.34;61.47;99977.97;7252268;19;153129;-56
2022/11/06 10:43:31;;;;;;;;;;;;;;;21.34;61.42;99989.19;7248821;19;153479;-56
2022/11/06 10:46:08;;;;;;;;;;;;;;;21.31;61.61;99996.28;7250011;19;153365;-55
2022/11/06 10:48:39;;;;;;;;;;;;;;;21.29;61.82;99993.00;7253071;19;153086;-56
2022/11/06 10:51:10;;;;;;;;;;;;;;;21.27;62.20;99995.31;7252196;19;154054;-57
2022/11/06 10:53:47;;;;;;;;;;;;;;;21.24;62.02;99999.66;7250052;19;155701;-56
2022/11/06 10:56:22;;;;;;;;;;;;;;;21.26;62.31;99993.66;7250434;19;153093;-56
2022/11/06 10:58:49;;;;;;;;;;;;;;;21.27;62.09;99992.50;7250261;19;154330;-56
2022/11/06 11:01:16;;;;;;;;;;;;;;;21.29;62.33;99993.00;7258317;19;154064;-56
2022/11/06 11:03:45;;;;;;;;;;;;;;;21.31;61.94;99982.25;7250986;19;156047;-57
2022/11/06 11:06:12;;;;;;;;;;;;;;;21.34;61.96;99986.38;7249301;19;153833;-57
2022/11/06 11:08:41;;;;;;;;;;;;;;;21.35;61.91;99974.00;7251639;19;154084;-57
2022/11/06 11:11:18;;;;;;;;;;;;;;;21.34;61.65;99970.34;7248497;19;153902;-57
2022/11/06 11:13:46;;;;;;;;;;;;;;;21.38;61.53;99976.94;7244167;19;155362;-57
2022/11/06 11:16:17;;;;;;;;;;;;;;;21.39;61.48;99966.53;7248425;19;154356;-57
2022/11/06 11:18:45;;;;;;;;;;;;;;;21.41;61.23;99959.41;7250497;19;153888;-57
2022/11/06 11:21:12;;;;;;;;;;;;;;;21.43;61.61;99959.91;7246560;19;154945;-57
2022/11/06 11:23:39;;;;;;;;;;;;;;;21.45;61.11;99957.56;7258333;19;153904;-57
2022/11/06 11:26:15;;;;;;;;;;;;;;;21.46;61.22;99952.75;7248221;19;154803;-57
2022/11/06 11:28:42;;;;;;;;;;;;;;;21.47;61.27;99955.25;7250927;19;153923;-57
2022/11/06 11:31:11;;;;;;;;;;;;;;;21.49;61.00;99960.50;7245637;19;154400;-56
2022/11/06 11:33:43;;;;;;;;;;;;;;;21.49;61.08;99958.53;7254868;19;154612;-56
2022/11/06 11:36:10;;;;;;;;;;;;;;;21.49;61.08;99952.91;7255487;19;153536;-57
2022/11/06 11:38:38;;;;;;;;;;;;;;;21.50;61.01;99946.13;7259863;19;153615;-57
2022/11/06 11:41:15;;;;;;;;;;;;;;;21.51;60.94;99942.16;7255053;19;153562;-56
2022/11/06 11:43:42;;;;;;;;;;;;;;;21.50;61.20;99932.06;7258399;19;154238;-57
2022/11/06 11:46:11;;;;;;;;;;;;;;;21.51;60.77;99916.03;7253220;19;154380;-57
2022/11/06 11:48:48;;;;;;;;;;;;;;;21.51;60.72;99924.47;7256026;19;152974;-57
2022/11/06 11:51:16;;;;;;;;;;;;;;;21.52;60.91;99923.31;7258837;19;153480;-56
2022/11/06 11:53:43;;;;;;;;;;;;;;;21.52;60.54;99914.88;7256556;19;154342;-56
2022/11/06 11:56:15;;;;;;;;;;;;;;;21.56;60.78;99905.41;7254977;19;154605;-53
2022/11/06 11:59:02;;;;;;;;;;;;;;;21.56;60.98;99913.84;7257511;19;154499;-56
2022/11/06 12:01:33;;;;;;;;;;;;;;;21.58;60.93;99902.25;7254339;19;153896;-59
2022/11/06 12:04:06;;;;;;;;;;;;;;;21.59;60.84;99903.91;7258251;19;153421;-56
2022/11/06 12:06:33;;;;;;;;;;;;;;;21.57;60.71;99895.00;7262384;19;154591;-56
2022/11/06 12:09:00;;;;;;;;;;;;;;;21.55;60.26;99889.72;7259337;19;153740;-55
2022/11/06 12:11:29;;;;;;;;;;;;;;;21.58;61.22;99883.41;7254927;19;153754;-53
2022/11/06 12:14:05;;;;;;;;;;;;;;;21.79;60.87;99868.53;7252372;19;154269;-54
2022/11/06 12:16:32;;;;;;;;;;;;;;;21.85;60.83;99861.56;7256954;19;153516;-56
2022/11/06 12:19:01;;;;;;;;;;;;;;;21.85;60.16;99858.75;7256069;19;154186;-56
2022/11/06 12:21:31;;;;;;;;;;;;;;;21.83;60.18;99870.31;7251672;19;153529;-56
2022/11/06 12:24:02;;;;;;;;;;;;;;;21.81;60.05;99860.56;7251233;19;152344;-56
2022/11/06 12:26:33;;;;;;;;;;;;;;;21.78;59.81;99862.09;7253743;19;154046;-57
2022/11/06 12:29:05;;;;;;;;;;;;;;;21.78;60.21;99859.28;7263214;19;153402;-56
2022/11/06 12:31:37;;;;;;;;;;;;;;;21.78;59.77;99852.84;7254319;19;155668;-56
2022/11/06 12:34:10;;;;;;;;;;;;;;;21.78;59.79;99835.97;7252740;19;153744;-56
2022/11/06 12:36:45;;;;;;;;;;;;;;;21.74;59.77;99825.41;7255524;19;154762;-56
2022/11/06 12:39:15;;;;;;;;;;;;;;;21.74;59.46;99821.78;7254326;19;155432;-56
2022/11/06 12:41:44;;;;;;;;;;;;;;;21.74;59.40;99814.16;7253162;19;155511;-56
2022/11/06 12:44:13;;;;;;;;;;;;;;;21.73;59.27;99809.69;7247632;19;153879;-56
2022/11/06 12:46:43;;;;;;;;;;;;;;;21.71;59.09;99811.22;7252107;19;153287;-56
2022/11/06 12:49:20;;;;;;;;;;;;;;;21.69;59.41;99808.75;7254687;19;155214;-56
2022/11/06 12:51:56;;;;;;;;;;;;;;;21.67;59.48;99802.63;7264152;19;153991;-56
2022/11/06 12:54:33;;;;;;;;;;;;;;;21.66;59.38;99795.38;7254842;19;153298;-56
2022/11/06 12:57:08;;;;;;;;;;;;;;;21.64;58.96;99792.09;7256040;19;153278;-57